Main page
METAR-TAF:

METAR-TAF

Airports :

Nador, Morocco

Nador International Airport

latitude: 34-59-20N, longitude: 003-01-42W, elevation: 175 m

Current weather observation

The report was made 45 minutes ago, at 16:00 UTC
Wind 11 kt from the Northeast, varying between North and East/Northeast
Temperature 30°C
Humidity 25%
Pressure 1013 hPa
Visibility 10 km or more
no clouds below 1500 m and no cumulonimbus

METAR: GMMW 221600Z 04011KT 360V070 CAVOK 30/08 Q1013 NOSIG

Time: 17:45 (16:45 UTC)

Forecast

The report was made 11 hours and 45 minutes ago, at 05:00 UTC
Forecast valid from 22 at 06 UTC to 23 at 12 UTC
Wind 2 kt from variable directions
Visibility 10 km or more
no clouds below 1500 m and no cumulonimbus
Temporary
from 22 at 08 UTC to 22 at 18 UTC
Wind 10 kt from the Northeast

TAF: GMMW 220500Z 2206/2312 VRB02KT CAVOK TEMPO 2208/2218 04010KT

Weather observations and forecasts of more than 4000 airports (METAR and TAF reports).

The available stations are represented by yellow and red dots on the map.

Hover mouse over dot to see the name of the station.

Then click to see weather observations and forecasts.

To change the map : click on the green buttons with a black cross to zoom in, on the green button with a dash to zoom out, or on the green arrows for adjacent maps.


METAR-TAF: